Terminal Aerodrome Forecast
Issued by NWS Quad Cities IA IL

Home | Current Version | Previous Version | Text Only | Print | Product List | Glossary On
Versions: 1 2 3 4 5 6 7 8 9 10 11 12 13 14 15 16 17 18 19 20 21 22 23 24 25 26 27 28 29 30
842
FTUS43 KDVN 270659 AAA
TAFMLI
TAF AMD
KMLI 270659Z 2707/2806 07008KT P6SM VCTS SCT030CB OVC060
      TEMPO 2707/2710 1SM +TSRA BR BKN009 OVC030CB
     FM271000 13005KT 6SM BR VCSH SCT009 OVC020
     FM271500 20005KT P6SM FEW035 SCT250=

USA.gov is the U.S. government's official web portal to all federal, state and local government web resources and services.